createdAt,value
2019-06-20T00:02:05.014Z,10.32
2019-06-20T00:04:34.816Z,10.35
2019-06-20T00:07:04.553Z,9.00
2019-06-20T00:09:34.445Z,9.03
2019-06-20T00:12:04.320Z,8.00
2019-06-20T00:14:34.048Z,7.62
2019-06-20T00:17:03.734Z,11.85
2019-06-20T00:19:33.501Z,9.38
2019-06-20T00:22:03.383Z,9.18
2019-06-20T00:24:33.207Z,7.58
2019-06-20T00:27:03.016Z,9.28
2019-06-20T00:29:32.727Z,9.00
2019-06-20T00:32:03.548Z,9.58
2019-06-20T00:34:33.354Z,10.18
2019-06-20T00:37:03.183Z,8.65
2019-06-20T00:39:33.036Z,10.65
2019-06-20T00:42:02.835Z,8.80
2019-06-20T00:44:32.633Z,12.50
2019-06-20T00:47:02.538Z,8.48
2019-06-20T00:49:32.278Z,10.08
2019-06-20T00:52:02.165Z,10.00
2019-06-20T00:54:32.059Z,8.95
2019-06-20T00:57:01.876Z,9.70
2019-06-20T00:59:31.771Z,13.05
2019-06-20T01:02:01.508Z,9.80
2019-06-20T01:04:31.361Z,10.08
2019-06-20T01:07:01.144Z,10.45
2019-06-20T01:09:31.046Z,9.18
2019-06-20T01:12:00.882Z,9.08
2019-06-20T01:14:30.707Z,10.53
2019-06-20T01:17:00.474Z,11.73
2019-06-20T01:19:30.190Z,9.45
2019-06-20T01:22:00.012Z,9.83
2019-06-20T01:24:29.791Z,11.05
2019-06-20T01:26:59.652Z,11.70
2019-06-20T01:29:29.441Z,9.83
2019-06-20T01:31:59.127Z,11.45
2019-06-20T01:34:28.807Z,9.30
2019-06-20T01:36:58.655Z,8.85
2019-06-20T01:39:28.452Z,9.83
2019-06-20T01:41:58.260Z,10.50
2019-06-20T01:44:28.177Z,12.03
2019-06-20T01:46:59.188Z,13.35
2019-06-20T01:49:28.987Z,10.05
2019-06-20T01:51:58.854Z,9.25
2019-06-20T01:54:29.322Z,9.03
2019-06-20T01:56:59.564Z,10.80
2019-06-20T01:59:29.429Z,11.63
2019-06-20T02:02:00.627Z,9.53
2019-06-20T02:04:31.684Z,11.20
2019-06-20T02:07:01.483Z,9.50
2019-06-20T02:09:31.289Z,11.73
2019-06-20T02:12:01.146Z,9.70
2019-06-20T02:14:31.118Z,12.80
2019-06-20T02:17:00.971Z,9.53
2019-06-20T02:19:30.871Z,11.38
2019-06-20T02:22:00.624Z,9.83
2019-06-20T02:24:30.381Z,10.68
2019-06-20T02:27:00.092Z,10.38
2019-06-20T02:29:29.956Z,10.63
2019-06-20T02:31:59.727Z,13.32
2019-06-20T02:34:29.559Z,10.23
2019-06-20T02:36:59.267Z,9.75
2019-06-20T02:39:29.167Z,12.30
2019-06-20T02:42:00.905Z,11.57
2019-06-20T02:44:31.054Z,16.00
2019-06-20T02:47:00.993Z,12.55
2019-06-20T02:49:30.857Z,11.68
2019-06-20T02:52:01.307Z,11.18
2019-06-20T02:54:31.054Z,12.95
2019-06-20T02:57:00.838Z,12.18
2019-06-20T02:59:30.691Z,12.23
2019-06-20T03:02:00.441Z,12.58
2019-06-20T03:04:30.242Z,11.83
2019-06-20T03:07:00.097Z,12.03
2019-06-20T03:09:29.903Z,12.75
2019-06-20T03:11:59.681Z,14.25
2019-06-20T03:14:41.783Z,13.35
2019-06-20T03:17:00.751Z,12.35
2019-06-20T03:19:30.487Z,12.13
2019-06-20T03:22:00.288Z,13.55
2019-06-20T03:24:29.974Z,13.75
2019-06-20T03:26:59.820Z,14.63
2019-06-20T03:29:29.708Z,13.58
2019-06-20T03:31:59.530Z,15.38
2019-06-20T03:34:29.287Z,16.65
2019-06-20T03:36:59.101Z,11.93
2019-06-20T03:39:28.995Z,11.22
2019-06-20T03:41:59.014Z,12.07
2019-06-20T03:44:28.852Z,12.05
2019-06-20T03:46:58.669Z,11.50
2019-06-20T03:49:28.350Z,17.07
2019-06-20T03:51:58.211Z,13.18
2019-06-20T03:54:27.980Z,12.07
2019-06-20T03:56:57.797Z,11.63
2019-06-20T03:59:27.484Z,12.03
2019-06-20T04:01:57.218Z,12.80
2019-06-20T04:04:27.002Z,14.07
2019-06-20T04:06:56.787Z,12.15
2019-06-20T04:09:26.611Z,12.55
2019-06-20T04:11:56.486Z,12.10
2019-06-20T04:14:26.254Z,12.15
2019-06-20T04:16:56.003Z,11.50
2019-06-20T04:19:25.930Z,12.82
2019-06-20T04:21:55.798Z,14.20
2019-06-20T04:24:27.849Z,11.25
2019-06-20T04:26:57.129Z,17.02
2019-06-20T04:29:26.887Z,13.75
2019-06-20T04:31:56.714Z,11.20
2019-06-20T04:34:26.690Z,12.47
2019-06-20T04:36:56.532Z,13.72
2019-06-20T04:39:26.338Z,12.95
2019-06-20T04:41:56.142Z,14.78
2019-06-20T04:44:25.978Z,12.60
2019-06-20T04:47:01.281Z,11.68
2019-06-20T04:49:31.054Z,14.38
2019-06-20T04:52:01.191Z,13.03
2019-06-20T04:54:31.112Z,18.57
2019-06-20T04:57:00.870Z,18.77
2019-06-20T04:59:30.695Z,13.80
2019-06-20T05:02:00.533Z,16.57
2019-06-20T05:04:30.358Z,18.37
2019-06-20T05:07:07.406Z,12.55
2019-06-20T05:09:37.243Z,17.92
2019-06-20T05:12:08.301Z,16.93
2019-06-20T05:14:38.111Z,17.12
2019-06-20T05:17:07.878Z,16.97
2019-06-20T05:19:37.700Z,17.77
2019-06-20T05:22:07.431Z,16.15
2019-06-20T05:24:37.186Z,15.18
2019-06-20T05:27:06.942Z,21.77
2019-06-20T05:29:37.487Z,15.50
2019-06-20T05:32:07.401Z,19.73
2019-06-20T05:34:37.383Z,19.65
2019-06-20T05:37:07.174Z,18.92
2019-06-20T05:39:36.971Z,18.48
2019-06-20T05:42:06.924Z,16.55
2019-06-20T05:44:36.760Z,16.12
2019-06-20T05:47:12.217Z,17.85
2019-06-20T05:49:37.966Z,17.77
2019-06-20T05:52:07.684Z,16.80
2019-06-20T05:54:37.608Z,17.25
2019-06-20T05:57:07.364Z,19.48
2019-06-20T05:59:37.147Z,19.23
2019-06-20T06:02:07.712Z,18.40
2019-06-20T06:04:37.487Z,18.55
2019-06-20T06:07:09.160Z,19.48
2019-06-20T06:09:38.867Z,16.48
2019-06-20T06:12:09.732Z,17.30
2019-06-20T06:14:39.807Z,23.25
2019-06-20T06:17:09.575Z,23.30
2019-06-20T06:19:39.320Z,19.75
2019-06-20T06:22:09.246Z,21.52
2019-06-20T06:24:47.445Z,20.30
2019-06-20T06:27:17.273Z,21.33
2019-06-20T06:29:53.375Z,18.98
2019-06-20T06:32:39.636Z,24.27
2019-06-20T06:34:58.719Z,19.00
2019-06-20T06:37:39.089Z,21.12
2019-06-20T06:40:19.779Z,20.25
2019-06-20T06:42:54.954Z,23.83
2019-06-20T06:45:52.605Z,17.60
2019-06-20T06:48:26.215Z,17.12
2019-06-20T06:50:58.677Z,19.92
2019-06-20T06:53:52.462Z,18.42
2019-06-20T06:56:32.182Z,18.80
2019-06-20T06:59:05.869Z,17.60
2019-06-20T07:01:54.634Z,23.57
2019-06-20T07:04:33.207Z,15.55
2019-06-20T07:07:13.257Z,13.75
2019-06-20T07:09:45.422Z,12.33
2019-06-20T07:12:20.975Z,11.43
2019-06-20T07:14:53.541Z,9.75
2019-06-20T07:17:32.372Z,7.08
2019-06-20T07:20:15.041Z,6.25
2019-06-20T07:22:42.628Z,6.42
2019-06-20T07:25:14.813Z,6.58
2019-06-20T07:27:55.418Z,5.80
2019-06-20T07:30:25.367Z,5.33
2019-06-20T07:33:03.609Z,8.08
2019-06-20T07:35:33.390Z,5.58
2019-06-20T07:38:03.315Z,5.28
2019-06-20T07:40:34.819Z,4.58
2019-06-20T07:43:15.512Z,6.58
2019-06-20T07:46:01.932Z,5.58
2019-06-20T07:48:26.823Z,4.60
2019-06-20T07:51:01.716Z,5.85
2019-06-20T07:53:38.440Z,4.60
2019-06-20T07:56:09.572Z,5.67
2019-06-20T07:58:47.917Z,4.33
2019-06-20T08:01:26.279Z,4.20
2019-06-20T08:04:02.026Z,4.83
2019-06-20T08:06:42.704Z,5.28
2019-06-20T08:09:25.237Z,4.62
2019-06-20T08:12:01.666Z,7.75
2019-06-20T08:14:34.303Z,6.30
2019-06-20T08:17:10.703Z,4.03
2019-06-20T08:19:45.743Z,7.25
2019-06-20T08:22:18.171Z,4.50
2019-06-20T08:24:53.772Z,3.70
2019-06-20T08:27:45.679Z,5.47
2019-06-20T08:30:38.962Z,4.28
2019-06-20T08:33:15.955Z,4.10
2019-06-20T08:35:47.604Z,5.22
2019-06-20T08:38:28.684Z,10.25
2019-06-20T08:41:06.505Z,3.60
2019-06-20T08:43:35.995Z,6.10
2019-06-20T08:46:10.346Z,7.95
2019-06-20T08:48:45.717Z,4.62
2019-06-20T08:51:19.647Z,4.05
2019-06-20T08:54:01.191Z,4.97
2019-06-20T08:56:37.428Z,5.10
2019-06-20T08:59:23.585Z,4.20
2019-06-20T09:01:58.035Z,8.35
2019-06-20T09:04:34.005Z,4.25
2019-06-20T09:07:06.894Z,6.10
2019-06-20T09:09:50.681Z,4.25
2019-06-20T09:12:24.331Z,5.00
2019-06-20T09:14:59.208Z,4.47
2019-06-20T09:17:39.948Z,7.83
2019-06-20T09:20:17.570Z,4.20
2019-06-20T09:22:50.567Z,4.42
2019-06-20T09:25:26.103Z,5.78
2019-06-20T09:27:58.076Z,5.85
2019-06-20T09:30:33.891Z,4.50
2019-06-20T09:33:10.887Z,5.53
2019-06-20T09:35:52.160Z,4.62
2019-06-20T09:38:25.334Z,5.33
2019-06-20T09:40:59.235Z,4.65
2019-06-20T09:43:32.254Z,5.55
2019-06-20T09:46:03.835Z,4.60
2019-06-20T09:48:35.056Z,4.70
2019-06-20T09:51:04.941Z,5.40
2019-06-20T09:53:36.595Z,6.05
2019-06-20T09:56:13.419Z,4.65
2019-06-20T09:58:51.175Z,4.22
2019-06-20T10:01:24.839Z,4.33
2019-06-20T10:03:54.773Z,6.15
2019-06-20T10:06:31.383Z,5.05
2019-06-20T10:09:01.575Z,6.12
2019-06-20T10:11:32.138Z,4.28
2019-06-20T10:14:19.914Z,4.25
2019-06-20T10:16:56.902Z,4.95
2019-06-20T10:19:33.219Z,4.33
2019-06-20T10:22:11.441Z,4.60
2019-06-20T10:24:40.514Z,4.78
2019-06-20T10:27:13.476Z,4.75
2019-06-20T10:29:46.203Z,4.95
2019-06-20T10:32:20.960Z,5.53
2019-06-20T10:34:53.204Z,4.87
2019-06-20T10:37:23.048Z,4.50
2019-06-20T10:39:59.259Z,8.20
2019-06-20T10:42:28.360Z,5.97
2019-06-20T10:45:04.779Z,4.62
2019-06-20T10:47:37.235Z,10.38
2019-06-20T10:50:11.295Z,4.95
2019-06-20T10:52:43.672Z,11.63
2019-06-20T10:55:30.828Z,5.20
2019-06-20T10:58:05.243Z,4.53
2019-06-20T11:00:42.966Z,4.72
2019-06-20T11:03:16.584Z,5.60
2019-06-20T11:05:50.387Z,5.90
2019-06-20T11:08:29.723Z,6.95
2019-06-20T11:11:04.116Z,7.80
2019-06-20T11:13:35.273Z,9.88
2019-06-20T11:16:09.626Z,4.62
2019-06-20T11:18:43.654Z,7.03
2019-06-20T11:21:23.566Z,4.40
2019-06-20T11:23:53.106Z,6.00
2019-06-20T11:26:28.662Z,5.92
2019-06-20T11:29:00.386Z,8.50
2019-06-20T11:31:32.812Z,10.70
2019-06-20T11:34:02.696Z,5.12
2019-06-20T11:36:32.592Z,5.00
2019-06-20T11:39:02.368Z,5.35
2019-06-20T11:41:32.285Z,4.35
2019-06-20T11:44:02.110Z,4.75
2019-06-20T11:46:31.929Z,5.80
2019-06-20T11:49:01.761Z,5.47
2019-06-20T11:51:31.536Z,6.15
2019-06-20T11:54:01.402Z,6.12
2019-06-20T11:56:31.292Z,8.05
2019-06-20T11:59:00.974Z,8.25
2019-06-20T12:01:33.152Z,5.47
2019-06-20T12:04:02.271Z,5.22
2019-06-20T12:06:32.220Z,5.70
2019-06-20T12:09:01.953Z,6.03
2019-06-20T12:11:31.781Z,6.78
2019-06-20T12:14:01.597Z,5.58
2019-06-20T12:16:31.442Z,5.90
2019-06-20T12:19:01.319Z,6.10
2019-06-20T12:21:31.107Z,5.67
2019-06-20T12:24:01.047Z,5.95
2019-06-20T12:26:30.878Z,5.80
2019-06-20T12:29:00.718Z,6.00
2019-06-20T12:31:30.631Z,6.92
2019-06-20T12:34:00.406Z,7.65
2019-06-20T12:36:30.190Z,9.10
2019-06-20T12:39:01.916Z,6.12
2019-06-20T12:41:31.697Z,5.53
2019-06-20T12:44:03.081Z,5.15
2019-06-20T12:46:32.860Z,5.12
2019-06-20T12:49:02.690Z,5.53
2019-06-20T12:51:32.608Z,4.92
2019-06-20T12:54:02.411Z,4.85
2019-06-20T12:56:32.248Z,4.92
2019-06-20T12:59:19.783Z,5.08
2019-06-20T13:01:50.816Z,5.60
2019-06-20T13:04:21.280Z,5.08
2019-06-20T13:06:51.194Z,5.05
2019-06-20T13:09:21.012Z,5.92
2019-06-20T13:11:50.767Z,6.20
2019-06-20T13:14:20.867Z,5.00
2019-06-20T13:16:50.619Z,5.42
2019-06-20T13:19:20.359Z,5.30
2019-06-20T13:21:50.181Z,6.62
2019-06-20T13:24:19.944Z,8.45
2019-06-20T13:26:50.757Z,7.67
2019-06-20T13:29:20.893Z,7.70
2019-06-20T13:32:02.051Z,7.10
2019-06-20T13:34:22.236Z,7.72
2019-06-20T13:36:52.104Z,7.83
2019-06-20T13:39:21.864Z,13.83
2019-06-20T13:41:51.658Z,11.63
2019-06-20T13:44:21.784Z,5.95
2019-06-20T13:46:51.823Z,6.28
2019-06-20T13:49:21.815Z,5.60
2019-06-20T13:51:51.557Z,6.00
2019-06-20T13:54:21.511Z,6.00
2019-06-20T13:56:51.798Z,6.35
2019-06-20T13:59:21.798Z,5.70
2019-06-20T14:02:05.889Z,5.90
2019-06-20T14:04:23.198Z,8.78
2019-06-20T14:06:53.819Z,5.25
2019-06-20T14:09:23.645Z,5.45
2019-06-20T14:11:54.202Z,5.05
2019-06-20T14:14:24.307Z,5.30
2019-06-20T14:16:54.123Z,6.37
2019-06-20T14:19:23.898Z,6.10
2019-06-20T14:21:54.318Z,5.75
2019-06-20T14:24:24.208Z,6.05
2019-06-20T14:26:54.553Z,5.83
2019-06-20T14:29:24.635Z,6.05
2019-06-20T14:31:54.550Z,7.37
2019-06-20T14:34:24.360Z,5.78
2019-06-20T14:36:54.478Z,5.22
2019-06-20T14:39:24.234Z,6.12
2019-06-20T14:41:55.169Z,6.87
2019-06-20T14:44:25.190Z,6.97
2019-06-20T14:46:55.053Z,7.12
2019-06-20T14:49:24.874Z,12.28
2019-06-20T14:51:55.122Z,7.70
2019-06-20T14:54:25.343Z,7.17
2019-06-20T14:56:58.078Z,7.17
2019-06-20T14:59:26.579Z,10.72
2019-06-20T15:01:56.313Z,9.03
2019-06-20T15:04:26.176Z,11.68
2019-06-20T15:06:55.994Z,10.98
2019-06-20T15:09:25.860Z,12.85
2019-06-20T15:11:55.640Z,11.93
2019-06-20T15:14:27.031Z,10.68
2019-06-20T15:17:04.610Z,12.80
2019-06-20T15:19:35.047Z,12.00
2019-06-20T15:22:10.411Z,11.88
2019-06-20T15:24:50.405Z,25.10
2019-06-20T15:27:32.401Z,15.15
2019-06-20T15:30:08.886Z,15.83
2019-06-20T15:33:10.014Z,18.00
2019-06-20T15:35:53.421Z,23.02
2019-06-20T15:38:21.720Z,49.00
2019-06-20T15:41:02.453Z,48.50
2019-06-20T15:43:32.675Z,50.55
2019-06-20T15:46:08.625Z,19.75
2019-06-20T15:48:40.149Z,13.93
2019-06-20T15:51:14.362Z,11.60
2019-06-20T15:53:51.289Z,12.70
2019-06-20T15:56:36.526Z,14.38
2019-06-20T16:02:32.690Z,11.78
2019-06-20T16:05:29.489Z,10.53
2019-06-20T16:08:08.814Z,13.40
2019-06-20T16:10:53.729Z,14.20
2019-06-20T16:13:22.342Z,13.93
2019-06-20T16:15:55.906Z,15.58
2019-06-20T16:18:38.804Z,17.45
2019-06-20T16:21:16.351Z,14.00
2019-06-20T16:24:07.094Z,10.82
2019-06-20T16:26:45.285Z,9.43
2019-06-20T16:32:24.091Z,12.03
2019-06-20T16:38:05.522Z,10.28
2019-06-20T16:40:54.436Z,6.90
2019-06-20T16:43:25.089Z,9.70
2019-06-20T16:46:01.315Z,9.98
2019-06-20T16:48:51.512Z,9.40
2019-06-20T16:51:36.125Z,11.75
2019-06-20T16:54:09.737Z,10.90
2019-06-20T16:56:49.204Z,15.35
2019-06-20T16:59:25.673Z,11.57
2019-06-20T17:01:58.343Z,11.08
2019-06-20T17:04:28.141Z,12.30
2019-06-20T17:07:00.741Z,10.10
2019-06-20T17:09:37.006Z,9.10
2019-06-20T17:12:14.699Z,12.28
2019-06-20T17:14:46.293Z,11.78
2019-06-20T17:17:20.572Z,11.40
2019-06-20T17:20:00.834Z,15.03
2019-06-20T17:22:39.003Z,15.35
2019-06-20T17:25:14.043Z,14.28
2019-06-20T17:27:49.360Z,15.35
2019-06-20T17:30:25.812Z,15.50
2019-06-20T17:33:03.567Z,13.48
2019-06-20T17:35:33.302Z,13.58
2019-06-20T17:38:03.126Z,16.15
2019-06-20T17:40:48.624Z,15.58
2019-06-20T17:43:40.792Z,18.75
2019-06-20T17:46:14.758Z,20.60
2019-06-20T17:48:47.015Z,18.30
2019-06-20T17:51:20.661Z,14.75
2019-06-20T17:53:53.958Z,16.00
2019-06-20T17:56:27.361Z,20.15
2019-06-20T17:59:03.327Z,18.55
2019-06-20T18:01:36.306Z,12.80
2019-06-20T18:04:15.413Z,13.08
2019-06-20T18:06:47.113Z,14.05
2019-06-20T18:09:16.983Z,13.50
2019-06-20T18:11:48.213Z,14.55
2019-06-20T18:14:25.493Z,15.58
2019-06-20T18:16:55.445Z,12.25
2019-06-20T18:19:25.549Z,13.50
2019-06-20T18:22:01.073Z,14.15
2019-06-20T18:24:32.564Z,13.38
2019-06-20T18:27:10.481Z,14.65
2019-06-20T18:29:43.507Z,17.25
2019-06-20T18:32:22.277Z,15.25
2019-06-20T18:35:01.849Z,13.08
2019-06-20T18:37:33.110Z,11.88
2019-06-20T18:40:08.715Z,11.08
2019-06-20T18:42:40.612Z,9.03
2019-06-20T18:45:13.524Z,9.35
2019-06-20T18:47:45.414Z,10.68
2019-06-20T18:50:21.909Z,11.18
2019-06-20T18:52:54.755Z,9.33
2019-06-20T18:55:30.449Z,14.13
2019-06-20T18:58:07.960Z,10.80
2019-06-20T19:00:38.765Z,12.00
2019-06-20T19:03:14.051Z,12.98
2019-06-20T19:05:45.516Z,11.00
2019-06-20T19:08:22.554Z,11.43
2019-06-20T19:10:52.379Z,10.90
2019-06-20T19:13:22.529Z,10.88
2019-06-20T19:15:53.461Z,12.33
2019-06-20T19:18:24.364Z,12.95
2019-06-20T19:20:54.108Z,14.25
2019-06-20T19:23:23.838Z,14.83
2019-06-20T19:25:53.599Z,15.10
2019-06-20T19:28:23.259Z,17.92
2019-06-20T19:30:54.682Z,13.43
2019-06-20T19:33:24.446Z,15.40
2019-06-20T19:35:54.181Z,15.03
2019-06-20T19:38:24.000Z,13.20
2019-06-20T19:40:53.918Z,15.43
2019-06-20T19:43:23.682Z,12.45
2019-06-20T19:45:53.564Z,12.15
2019-06-20T19:48:23.450Z,15.20
2019-06-20T19:50:53.291Z,12.55
2019-06-20T19:53:23.230Z,12.07
2019-06-20T19:55:53.043Z,11.85
2019-06-20T19:58:22.863Z,12.90
2019-06-20T20:00:52.618Z,11.63
2019-06-20T20:03:22.633Z,6.03
2019-06-20T20:05:52.387Z,4.85
2019-06-20T20:08:35.334Z,6.58
2019-06-20T20:11:08.782Z,6.95
2019-06-20T20:13:40.799Z,5.97
2019-06-20T20:16:17.760Z,7.03
2019-06-20T20:18:48.558Z,5.10
2019-06-20T20:21:19.735Z,5.12
2019-06-20T20:23:55.642Z,5.42
2019-06-20T20:26:25.459Z,5.50
2019-06-20T20:28:58.123Z,7.25
2019-06-20T20:31:30.541Z,5.72
2019-06-20T20:34:21.455Z,3.33
2019-06-20T20:36:54.544Z,3.92
2019-06-20T20:39:27.558Z,3.85
2019-06-20T20:42:00.185Z,2.83
2019-06-20T20:44:32.038Z,3.72
2019-06-20T20:47:02.377Z,5.28
2019-06-20T20:49:37.367Z,2.67
2019-06-20T20:52:08.812Z,2.83
2019-06-20T20:54:38.991Z,2.90
2019-06-20T20:57:14.004Z,2.52
2019-06-20T20:59:46.678Z,2.62
2019-06-20T21:02:22.212Z,4.92
2019-06-20T21:04:57.353Z,1.90
2019-06-20T21:07:32.778Z,1.95
2019-06-20T21:10:13.354Z,3.25
2019-06-20T21:12:43.296Z,2.47
2019-06-20T21:15:28.394Z,4.35
2019-06-20T21:18:09.246Z,2.05
2019-06-20T21:20:41.401Z,2.70
2019-06-20T21:23:11.668Z,4.85
2019-06-20T21:25:42.749Z,2.35
2019-06-20T21:28:34.902Z,2.10
2019-06-20T21:31:16.792Z,5.33
2019-06-20T21:33:48.798Z,2.37
2019-06-20T21:36:18.652Z,5.03
2019-06-20T21:38:54.404Z,2.35
2019-06-20T21:41:27.097Z,2.65
2019-06-20T21:44:03.141Z,2.67
2019-06-20T21:46:39.840Z,1.95
2019-06-20T21:49:10.009Z,2.75
2019-06-20T21:51:44.779Z,2.62
2019-06-20T21:54:15.181Z,2.72
2019-06-20T21:56:47.669Z,2.10
2019-06-20T21:59:20.331Z,1.87
2019-06-20T22:01:54.131Z,2.25
2019-06-20T22:04:26.037Z,1.50
2019-06-20T22:06:58.369Z,1.50
2019-06-20T22:09:33.989Z,1.82
2019-06-20T22:12:08.726Z,2.45
2019-06-20T22:14:48.697Z,3.52
2019-06-20T22:17:19.947Z,1.87
2019-06-20T22:19:52.060Z,1.82
2019-06-20T22:22:21.992Z,2.05
2019-06-20T22:24:54.583Z,2.75
2019-06-20T22:27:29.512Z,1.72
2019-06-20T22:30:05.602Z,1.60
2019-06-20T22:32:37.941Z,1.32
2019-06-20T22:35:26.826Z,1.45
2019-06-20T22:38:01.255Z,1.52
2019-06-20T22:40:33.420Z,1.92
2019-06-20T22:43:07.378Z,2.30
2019-06-20T22:45:49.632Z,1.57
2019-06-20T22:48:24.001Z,1.40
2019-06-20T22:50:53.990Z,1.62
2019-06-20T22:53:28.008Z,1.32
2019-06-20T22:55:58.380Z,1.50
2019-06-20T22:58:29.491Z,1.75
2019-06-20T23:01:01.520Z,2.20
2019-06-20T23:03:32.976Z,1.70
2019-06-20T23:06:10.355Z,1.47
2019-06-20T23:08:44.064Z,2.62
2019-06-20T23:11:20.069Z,1.45
2019-06-20T23:13:57.247Z,1.55
2019-06-20T23:16:28.385Z,1.22
2019-06-20T23:19:05.469Z,1.07
2019-06-20T23:21:36.273Z,2.75
2019-06-20T23:24:09.084Z,1.40
2019-06-20T23:26:40.814Z,1.65
2019-06-20T23:29:27.335Z,1.25
2019-06-20T23:31:57.712Z,2.58
2019-06-20T23:34:30.220Z,2.20
2019-06-20T23:37:12.305Z,1.60
2019-06-20T23:39:46.356Z,1.27
2019-06-20T23:42:33.392Z,2.15
2019-06-20T23:45:04.405Z,1.40
2019-06-20T23:47:39.179Z,1.85
2019-06-20T23:50:15.200Z,1.40
2019-06-20T23:52:47.781Z,1.42
2019-06-20T23:55:22.405Z,4.75
2019-06-20T23:57:55.860Z,4.05
